sensor_id;sensor_type;location;lat;lon;timestamp;P1;durP1;ratioP1;P2;durP2;ratioP2
9260;SDS011;4667;42.726;23.252;2024-01-15T11:33:58;21.80;;;15.23;;
9260;SDS011;4667;42.726;23.252;2024-01-15T11:39:41;25.30;;;16.13;;
9260;SDS011;4667;42.726;23.252;2024-01-15T11:42:12;22.90;;;15.70;;
9260;SDS011;4667;42.726;23.252;2024-01-15T11:44:41;24.73;;;16.37;;
9260;SDS011;4667;42.726;23.252;2024-01-15T11:47:08;28.90;;;17.73;;
9260;SDS011;4667;42.726;23.252;2024-01-15T11:50:01;24.03;;;16.07;;
9260;SDS011;4667;42.726;23.252;2024-01-15T11:52:33;28.90;;;18.33;;
9260;SDS011;4667;42.726;23.252;2024-01-15T11:55:07;27.63;;;17.63;;
9260;SDS011;4667;42.726;23.252;2024-01-15T11:57:45;33.23;;;18.83;;
9260;SDS011;4667;42.726;23.252;2024-01-15T12:00:13;27.10;;;18.47;;
9260;SDS011;4667;42.726;23.252;2024-01-15T12:02:41;28.27;;;17.97;;
9260;SDS011;4667;42.726;23.252;2024-01-15T12:05:12;29.77;;;17.67;;
9260;SDS011;4667;42.726;23.252;2024-01-15T12:07:40;27.50;;;18.17;;
9260;SDS011;4667;42.726;23.252;2024-01-15T12:10:10;28.33;;;18.33;;
9260;SDS011;4667;42.726;23.252;2024-01-15T12:12:39;34.53;;;20.23;;
9260;SDS011;4667;42.726;23.252;2024-01-15T12:15:14;30.87;;;18.27;;
9260;SDS011;4667;42.726;23.252;2024-01-15T12:17:41;29.50;;;18.77;;
9260;SDS011;4667;42.726;23.252;2024-01-15T12:20:08;32.37;;;18.43;;
9260;SDS011;4667;42.726;23.252;2024-01-15T12:22:38;30.37;;;19.13;;
9260;SDS011;4667;42.726;23.252;2024-01-15T12:25:06;37.43;;;19.67;;
9260;SDS011;4667;42.726;23.252;2024-01-15T12:27:33;28.53;;;18.77;;
9260;SDS011;4667;42.726;23.252;2024-01-15T12:30:05;30.97;;;19.80;;
9260;SDS011;4667;42.726;23.252;2024-01-15T12:33:05;31.47;;;19.90;;
9260;SDS011;4667;42.726;23.252;2024-01-15T12:35:34;32.43;;;19.00;;
9260;SDS011;4667;42.726;23.252;2024-01-15T12:38:03;27.30;;;18.13;;
9260;SDS011;4667;42.726;23.252;2024-01-15T12:40:33;31.73;;;19.83;;
9260;SDS011;4667;42.726;23.252;2024-01-15T12:43:20;28.83;;;20.30;;
9260;SDS011;4667;42.726;23.252;2024-01-15T12:45:47;29.73;;;19.57;;
9260;SDS011;4667;42.726;23.252;2024-01-15T12:48:15;29.83;;;19.03;;
9260;SDS011;4667;42.726;23.252;2024-01-15T12:50:44;36.17;;;19.50;;
9260;SDS011;4667;42.726;23.252;2024-01-15T12:53:23;35.87;;;18.73;;
9260;SDS011;4667;42.726;23.252;2024-01-15T12:55:51;30.30;;;18.13;;
9260;SDS011;4667;42.726;23.252;2024-01-15T12:58:18;27.83;;;16.83;;
9260;SDS011;4667;42.726;23.252;2024-01-15T13:00:45;26.87;;;17.07;;
9260;SDS011;4667;42.726;23.252;2024-01-15T13:03:18;27.67;;;17.70;;
9260;SDS011;4667;42.726;23.252;2024-01-15T13:05:45;26.27;;;16.70;;
9260;SDS011;4667;42.726;23.252;2024-01-15T13:08:12;23.07;;;15.80;;
9260;SDS011;4667;42.726;23.252;2024-01-15T13:10:41;27.23;;;17.77;;
9260;SDS011;4667;42.726;23.252;2024-01-15T13:13:11;25.27;;;17.07;;
9260;SDS011;4667;42.726;23.252;2024-01-15T13:15:41;29.37;;;17.50;;
9260;SDS011;4667;42.726;23.252;2024-01-15T13:18:14;28.23;;;17.93;;
9260;SDS011;4667;42.726;23.252;2024-01-15T13:20:41;31.97;;;18.20;;
9260;SDS011;4667;42.726;23.252;2024-01-15T13:23:08;39.33;;;19.17;;
9260;SDS011;4667;42.726;23.252;2024-01-15T13:25:35;29.30;;;19.23;;
9260;SDS011;4667;42.726;23.252;2024-01-15T13:28:06;30.40;;;17.50;;
9260;SDS011;4667;42.726;23.252;2024-01-15T13:30:46;34.17;;;20.20;;
9260;SDS011;4667;42.726;23.252;2024-01-15T13:33:32;29.53;;;19.10;;
9260;SDS011;4667;42.726;23.252;2024-01-15T13:36:02;24.70;;;17.37;;
9260;SDS011;4667;42.726;23.252;2024-01-15T13:38:37;24.97;;;15.93;;
9260;SDS011;4667;42.726;23.252;2024-01-15T13:41:04;25.97;;;16.97;;
9260;SDS011;4667;42.726;23.252;2024-01-15T13:43:41;23.50;;;17.53;;
9260;SDS011;4667;42.726;23.252;2024-01-15T13:46:09;34.33;;;16.47;;
9260;SDS011;4667;42.726;23.252;2024-01-15T13:48:42;31.53;;;17.30;;
9260;SDS011;4667;42.726;23.252;2024-01-15T13:51:18;24.27;;;16.53;;
9260;SDS011;4667;42.726;23.252;2024-01-15T13:53:45;27.50;;;16.83;;
9260;SDS011;4667;42.726;23.252;2024-01-15T13:56:12;27.27;;;17.33;;
9260;SDS011;4667;42.726;23.252;2024-01-15T13:58:40;26.37;;;15.97;;
9260;SDS011;4667;42.726;23.252;2024-01-15T14:01:08;22.27;;;15.17;;
9260;SDS011;4667;42.726;23.252;2024-01-15T14:03:35;23.80;;;15.27;;
9260;SDS011;4667;42.726;23.252;2024-01-15T14:06:02;24.10;;;17.00;;
9260;SDS011;4667;42.726;23.252;2024-01-15T14:08:33;27.67;;;15.90;;
9260;SDS011;4667;42.726;23.252;2024-01-15T14:11:01;29.33;;;18.03;;
9260;SDS011;4667;42.726;23.252;2024-01-15T14:13:28;26.67;;;16.20;;
9260;SDS011;4667;42.726;23.252;2024-01-15T14:15:56;29.43;;;17.17;;
9260;SDS011;4667;42.726;23.252;2024-01-15T14:18:24;28.47;;;19.17;;
9260;SDS011;4667;42.726;23.252;2024-01-15T14:20:51;33.17;;;19.83;;
9260;SDS011;4667;42.726;23.252;2024-01-15T14:23:18;30.70;;;20.30;;
9260;SDS011;4667;42.726;23.252;2024-01-15T14:25:45;31.10;;;17.67;;
9260;SDS011;4667;42.726;23.252;2024-01-15T14:28:12;28.17;;;18.43;;
9260;SDS011;4667;42.726;23.252;2024-01-15T14:30:39;29.33;;;19.23;;
9260;SDS011;4667;42.726;23.252;2024-01-15T14:33:08;31.83;;;20.40;;
9260;SDS011;4667;42.726;23.252;2024-01-15T14:35:35;30.80;;;20.23;;
9260;SDS011;4667;42.726;23.252;2024-01-15T14:38:05;34.47;;;20.23;;
9260;SDS011;4667;42.726;23.252;2024-01-15T14:40:33;33.33;;;19.90;;
9260;SDS011;4667;42.726;23.252;2024-01-15T14:43:02;33.73;;;19.90;;
9260;SDS011;4667;42.726;23.252;2024-01-15T14:45:30;34.90;;;20.40;;
9260;SDS011;4667;42.726;23.252;2024-01-15T14:48:00;32.43;;;18.43;;
9260;SDS011;4667;42.726;23.252;2024-01-15T14:50:31;28.00;;;17.73;;
9260;SDS011;4667;42.726;23.252;2024-01-15T14:52:58;28.90;;;18.33;;
9260;SDS011;4667;42.726;23.252;2024-01-15T14:55:27;31.13;;;18.33;;
9260;SDS011;4667;42.726;23.252;2024-01-15T14:57:55;32.83;;;19.40;;
9260;SDS011;4667;42.726;23.252;2024-01-15T15:00:22;27.57;;;18.53;;
9260;SDS011;4667;42.726;23.252;2024-01-15T15:02:49;28.63;;;19.00;;
9260;SDS011;4667;42.726;23.252;2024-01-15T15:05:16;38.30;;;20.83;;
9260;SDS011;4667;42.726;23.252;2024-01-15T15:07:45;42.43;;;21.37;;
9260;SDS011;4667;42.726;23.252;2024-01-15T15:10:11;33.80;;;20.63;;
9260;SDS011;4667;42.726;23.252;2024-01-15T15:12:38;31.97;;;21.27;;
9260;SDS011;4667;42.726;23.252;2024-01-15T15:15:06;31.67;;;20.17;;
9260;SDS011;4667;42.726;23.252;2024-01-15T15:17:36;31.00;;;20.50;;
9260;SDS011;4667;42.726;23.252;2024-01-15T15:20:03;34.23;;;20.20;;
9260;SDS011;4667;42.726;23.252;2024-01-15T15:22:31;30.30;;;21.13;;
9260;SDS011;4667;42.726;23.252;2024-01-15T15:24:59;39.33;;;22.33;;
9260;SDS011;4667;42.726;23.252;2024-01-15T15:27:26;35.33;;;20.40;;
9260;SDS011;4667;42.726;23.252;2024-01-15T15:29:54;39.73;;;20.90;;
9260;SDS011;4667;42.726;23.252;2024-01-15T15:32:21;38.67;;;21.03;;
9260;SDS011;4667;42.726;23.252;2024-01-15T15:34:48;30.03;;;21.37;;
9260;SDS011;4667;42.726;23.252;2024-01-15T15:37:15;41.00;;;23.30;;
9260;SDS011;4667;42.726;23.252;2024-01-15T15:39:42;38.30;;;22.97;;
9260;SDS011;4667;42.726;23.252;2024-01-15T15:42:11;42.13;;;23.43;;
9260;SDS011;4667;42.726;23.252;2024-01-15T15:44:39;37.67;;;23.17;;
9260;SDS011;4667;42.726;23.252;2024-01-15T15:47:11;35.37;;;22.43;;
9260;SDS011;4667;42.726;23.252;2024-01-15T15:49:39;38.37;;;23.33;;
9260;SDS011;4667;42.726;23.252;2024-01-15T15:55:53;43.37;;;21.27;;
9260;SDS011;4667;42.726;23.252;2024-01-15T15:58:21;35.50;;;23.57;;
9260;SDS011;4667;42.726;23.252;2024-01-15T16:00:48;39.43;;;22.90;;
9260;SDS011;4667;42.726;23.252;2024-01-15T16:03:15;37.27;;;22.33;;
9260;SDS011;4667;42.726;23.252;2024-01-15T16:05:42;33.83;;;22.43;;
9260;SDS011;4667;42.726;23.252;2024-01-15T16:08:09;37.10;;;22.00;;
9260;SDS011;4667;42.726;23.252;2024-01-15T16:10:36;35.67;;;22.00;;
9260;SDS011;4667;42.726;23.252;2024-01-15T16:13:03;35.47;;;21.73;;
9260;SDS011;4667;42.726;23.252;2024-01-15T16:15:34;38.53;;;23.00;;
9260;SDS011;4667;42.726;23.252;2024-01-15T16:18:01;36.20;;;22.90;;
9260;SDS011;4667;42.726;23.252;2024-01-15T16:20:30;39.90;;;22.87;;
9260;SDS011;4667;42.726;23.252;2024-01-15T16:22:57;42.50;;;23.40;;
